createdAt,value
2019-05-26T00:01:56.645Z,99.90
2019-05-26T00:04:29.795Z,99.90
2019-05-26T00:07:02.288Z,99.90
2019-05-26T00:09:35.228Z,99.90
2019-05-26T00:12:07.355Z,99.90
2019-05-26T00:14:39.815Z,99.90
2019-05-26T00:17:13.472Z,99.90
2019-05-26T00:19:45.303Z,99.90
2019-05-26T00:22:17.795Z,99.90
2019-05-26T00:24:50.423Z,99.90
2019-05-26T00:27:22.582Z,99.90
2019-05-26T00:29:55.200Z,99.90
2019-05-26T00:32:27.606Z,99.90
2019-05-26T00:34:59.646Z,99.90
2019-05-26T00:37:47.820Z,99.90
2019-05-26T00:40:05.754Z,99.90
2019-05-26T00:42:37.873Z,99.90
2019-05-26T00:45:10.666Z,99.90
2019-05-26T00:47:42.864Z,99.90
2019-05-26T00:50:15.913Z,99.90
2019-05-26T00:52:48.018Z,99.90
2019-05-26T00:55:20.763Z,99.90
2019-05-26T00:57:53.642Z,99.90
2019-05-26T01:00:40.687Z,99.90
2019-05-26T01:03:13.079Z,99.90
2019-05-26T01:05:45.650Z,99.90
2019-05-26T01:08:17.512Z,99.90
2019-05-26T01:10:49.997Z,99.90
2019-05-26T01:13:22.302Z,99.90
2019-05-26T01:15:54.840Z,99.90
2019-05-26T01:18:26.653Z,99.90
2019-05-26T01:20:58.737Z,99.90
2019-05-26T01:23:30.828Z,99.90
2019-05-26T01:26:02.952Z,99.90
2019-05-26T01:28:34.832Z,99.90
2019-05-26T01:31:07.208Z,99.90
2019-05-26T01:33:39.695Z,99.90
2019-05-26T01:36:11.662Z,99.90
2019-05-26T01:38:44.329Z,99.90
2019-05-26T01:41:16.437Z,99.90
2019-05-26T01:43:48.869Z,99.90
2019-05-26T01:46:20.702Z,99.90
2019-05-26T01:48:52.794Z,99.90
2019-05-26T01:51:25.236Z,99.90
2019-05-26T01:53:57.631Z,99.90
2019-05-26T01:56:29.604Z,99.90
2019-05-26T01:59:02.442Z,99.90
2019-05-26T02:01:34.637Z,99.90
2019-05-26T02:04:06.771Z,99.90
2019-05-26T02:06:39.338Z,99.90
2019-05-26T02:09:11.772Z,99.90
2019-05-26T02:11:44.232Z,99.90
2019-05-26T02:14:16.387Z,99.90
2019-05-26T02:16:48.248Z,99.90
2019-05-26T02:19:20.077Z,99.90
2019-05-26T02:21:51.967Z,99.90
2019-05-26T02:24:24.046Z,99.90
2019-05-26T02:26:56.490Z,99.90
2019-05-26T02:29:28.813Z,99.90
2019-05-26T02:32:01.370Z,99.90
2019-05-26T02:34:33.795Z,99.90
2019-05-26T02:37:05.996Z,99.90
2019-05-26T02:39:38.237Z,99.90
2019-05-26T02:42:10.210Z,99.90
2019-05-26T02:44:42.538Z,99.90
2019-05-26T02:47:14.753Z,99.90
2019-05-26T02:49:46.948Z,99.90
2019-05-26T02:52:18.981Z,99.90
2019-05-26T02:54:51.249Z,99.90
2019-05-26T02:57:23.378Z,99.90
2019-05-26T02:59:55.533Z,99.90
2019-05-26T03:02:28.328Z,99.90
2019-05-26T03:05:00.804Z,99.90
2019-05-26T03:07:34.527Z,99.90
2019-05-26T03:10:06.702Z,99.90
2019-05-26T03:12:41.084Z,99.90
2019-05-26T03:15:14.931Z,99.90
2019-05-26T03:17:49.227Z,99.90
2019-05-26T03:20:21.774Z,99.90
2019-05-26T03:22:55.012Z,99.90
2019-05-26T03:25:29.962Z,99.90
2019-05-26T03:28:02.280Z,99.90
2019-05-26T03:30:34.367Z,99.90
2019-05-26T03:33:06.492Z,99.90
2019-05-26T03:35:38.398Z,99.90
2019-05-26T03:38:10.531Z,99.90
2019-05-26T03:40:42.499Z,99.90
2019-05-26T03:43:14.652Z,99.90
2019-05-26T03:46:18.513Z,99.90
2019-05-26T03:48:50.955Z,99.90
2019-05-26T03:51:23.290Z,99.90
2019-05-26T03:53:55.159Z,99.90
2019-05-26T03:56:27.397Z,99.90
2019-05-26T03:58:59.712Z,99.90
2019-05-26T04:01:31.887Z,99.90
2019-05-26T04:04:03.932Z,99.90
2019-05-26T04:06:36.049Z,99.90
2019-05-26T04:09:08.259Z,99.90
2019-05-26T04:11:40.496Z,99.90
2019-05-26T04:14:13.316Z,99.90
2019-05-26T04:16:45.735Z,99.90
2019-05-26T04:19:17.741Z,99.90
2019-05-26T04:21:50.348Z,99.90
2019-05-26T04:24:22.616Z,99.90
2019-05-26T04:26:54.931Z,99.90
2019-05-26T04:29:26.833Z,99.90
2019-05-26T04:32:02.146Z,99.90
2019-05-26T04:34:33.758Z,99.90
2019-05-26T04:37:06.126Z,99.90
2019-05-26T04:39:38.353Z,99.90
2019-05-26T04:42:10.398Z,99.90
2019-05-26T04:44:42.364Z,99.90
2019-05-26T04:47:14.976Z,99.90
2019-05-26T04:49:47.091Z,99.90
2019-05-26T04:52:19.804Z,99.90
2019-05-26T04:54:52.026Z,99.90
2019-05-26T04:57:24.283Z,99.90
2019-05-26T04:59:57.050Z,99.90
2019-05-26T05:02:29.007Z,99.90
2019-05-26T05:05:00.979Z,99.90
2019-05-26T05:07:33.302Z,99.90
2019-05-26T05:10:06.214Z,99.90
2019-05-26T05:12:39.045Z,99.90
2019-05-26T05:15:11.302Z,99.90
2019-05-26T05:17:43.372Z,99.90
2019-05-26T05:20:16.495Z,99.90
2019-05-26T05:22:48.982Z,99.90
2019-05-26T05:25:20.931Z,99.90
2019-05-26T05:27:53.004Z,99.90
2019-05-26T05:30:24.957Z,99.90
2019-05-26T05:32:59.327Z,99.90
2019-05-26T05:35:31.838Z,99.90
2019-05-26T05:38:04.443Z,99.90
2019-05-26T05:40:36.365Z,99.90
2019-05-26T05:43:08.633Z,99.90
2019-05-26T05:45:40.871Z,99.90
2019-05-26T05:48:13.204Z,99.90
2019-05-26T05:50:45.679Z,99.90
2019-05-26T05:53:17.524Z,99.90
2019-05-26T05:55:50.002Z,99.90
2019-05-26T05:58:22.310Z,99.90
2019-05-26T06:00:54.558Z,99.90
2019-05-26T06:03:26.680Z,99.90
2019-05-26T06:05:59.188Z,99.90
2019-05-26T06:08:31.414Z,99.90
2019-05-26T06:11:16.179Z,99.90
2019-05-26T06:13:37.643Z,99.90
2019-05-26T06:16:09.831Z,99.90
2019-05-26T06:18:42.019Z,99.90
2019-05-26T06:21:14.536Z,99.90
2019-05-26T06:23:46.411Z,99.90
2019-05-26T06:26:18.504Z,99.90
2019-05-26T06:28:52.562Z,99.90
2019-05-26T06:31:24.956Z,99.90
2019-05-26T06:33:56.880Z,99.90
2019-05-26T06:36:29.120Z,99.90
2019-05-26T06:39:01.766Z,99.90
2019-05-26T06:41:34.176Z,99.90
2019-05-26T06:44:06.650Z,99.90
2019-05-26T06:46:38.963Z,99.90
2019-05-26T06:49:11.137Z,99.90
2019-05-26T06:51:42.948Z,99.90
2019-05-26T06:54:15.028Z,99.90
2019-05-26T06:56:47.213Z,99.90
2019-05-26T06:59:19.391Z,99.90
2019-05-26T07:01:51.192Z,99.90
2019-05-26T07:04:23.470Z,99.90
2019-05-26T07:06:55.682Z,99.90
2019-05-26T07:09:27.531Z,99.90
2019-05-26T07:12:00.582Z,99.90
2019-05-26T07:14:33.135Z,99.90
2019-05-26T07:17:05.353Z,99.90
2019-05-26T07:19:37.589Z,99.90
2019-05-26T07:22:10.013Z,99.90
2019-05-26T07:24:42.383Z,99.90
2019-05-26T07:27:14.683Z,99.90
2019-05-26T07:29:46.837Z,99.90
2019-05-26T07:32:18.825Z,99.90
2019-05-26T07:34:52.031Z,99.90
2019-05-26T07:37:23.906Z,99.90
2019-05-26T07:39:56.109Z,99.90
2019-05-26T07:42:27.963Z,99.90
2019-05-26T07:45:00.123Z,99.90
2019-05-26T07:47:32.234Z,99.90
2019-05-26T07:50:05.484Z,99.90
2019-05-26T07:52:37.356Z,99.90
2019-05-26T07:55:10.334Z,99.90
2019-05-26T07:57:42.739Z,99.90
2019-05-26T08:00:15.067Z,99.90
2019-05-26T08:02:47.308Z,99.90
2019-05-26T08:05:19.597Z,99.90
2019-05-26T08:07:52.035Z,99.90
2019-05-26T08:10:24.015Z,99.90
2019-05-26T08:12:56.544Z,99.90
2019-05-26T08:15:28.774Z,99.90
2019-05-26T08:18:01.195Z,99.90
2019-05-26T08:20:33.643Z,99.90
2019-05-26T08:23:05.549Z,99.90
2019-05-26T08:25:38.047Z,99.70
2019-05-26T08:28:10.541Z,99.80
2019-05-26T08:30:42.377Z,99.80
2019-05-26T08:33:14.232Z,99.70
2019-05-26T08:35:46.259Z,99.60
2019-05-26T08:38:18.058Z,99.80
2019-05-26T08:40:50.352Z,99.90
2019-05-26T08:43:22.609Z,99.90
2019-05-26T08:45:54.763Z,99.80
2019-05-26T08:48:26.699Z,98.80
2019-05-26T08:50:59.527Z,98.70
2019-05-26T08:53:31.703Z,98.80
2019-05-26T08:56:03.784Z,98.80
2019-05-26T08:58:35.607Z,98.90
2019-05-26T09:01:07.478Z,98.80
2019-05-26T09:03:39.315Z,98.70
2019-05-26T09:06:12.106Z,98.30
2019-05-26T09:08:44.025Z,98.30
2019-05-26T09:11:15.940Z,98.30
2019-05-26T09:13:47.953Z,97.70
2019-05-26T09:16:20.150Z,98.20
2019-05-26T09:18:52.004Z,97.60
2019-05-26T09:21:23.813Z,97.60
2019-05-26T09:23:55.963Z,97.30
2019-05-26T09:26:28.032Z,97.30
2019-05-26T09:29:01.543Z,96.80
2019-05-26T09:31:34.342Z,96.80
2019-05-26T09:34:06.376Z,96.70
2019-05-26T09:36:39.213Z,96.50
2019-05-26T09:39:11.142Z,96.10
2019-05-26T09:41:43.651Z,95.90
2019-05-26T09:44:15.490Z,95.90
2019-05-26T09:49:19.967Z,99.90
2019-05-26T09:51:52.083Z,95.10
2019-05-26T09:54:24.234Z,94.60
2019-05-26T09:56:56.063Z,94.80
2019-05-26T09:59:28.252Z,95.20
2019-05-26T10:02:00.363Z,94.90
2019-05-26T10:04:32.470Z,94.90
2019-05-26T10:07:04.504Z,94.30
2019-05-26T10:09:36.327Z,94.60
2019-05-26T10:12:08.224Z,95.00
2019-05-26T10:14:40.395Z,95.00
2019-05-26T10:17:12.813Z,94.50
2019-05-26T10:19:44.626Z,94.70
2019-05-26T10:22:16.762Z,95.00
2019-05-26T10:24:48.907Z,94.30
2019-05-26T10:27:21.129Z,94.20
2019-05-26T10:29:53.695Z,94.20
2019-05-26T10:32:25.584Z,94.50
2019-05-26T10:34:57.818Z,94.40
2019-05-26T10:37:30.201Z,94.20
2019-05-26T10:40:02.071Z,94.30
2019-05-26T10:42:34.943Z,94.20
2019-05-26T10:45:08.957Z,94.20
2019-05-26T10:52:46.003Z,93.60
2019-05-26T10:55:17.820Z,93.40
2019-05-26T10:57:50.971Z,93.50
2019-05-26T11:00:23.604Z,93.40
2019-05-26T11:02:55.770Z,93.60
2019-05-26T11:08:00.016Z,92.30
2019-05-26T11:10:32.367Z,93.10
2019-05-26T11:13:04.801Z,92.90
2019-05-26T11:15:37.323Z,93.00
2019-05-26T11:18:09.208Z,93.30
2019-05-26T11:20:41.123Z,93.20
2019-05-26T11:23:13.717Z,93.00
2019-05-26T11:25:45.835Z,92.80
2019-05-26T11:28:18.016Z,93.00
2019-05-26T11:30:49.903Z,92.80
2019-05-26T11:33:22.115Z,91.90
2019-05-26T11:35:54.446Z,92.20
2019-05-26T11:38:26.641Z,92.10
2019-05-26T11:40:59.541Z,91.50
2019-05-26T11:43:31.915Z,91.50
2019-05-26T11:46:04.115Z,91.10
2019-05-26T11:48:39.295Z,91.20
2019-05-26T11:51:10.995Z,90.50
2019-05-26T11:53:42.856Z,90.80
2019-05-26T11:56:15.331Z,91.00
2019-05-26T11:58:47.223Z,91.00
2019-05-26T12:01:22.640Z,91.10
2019-05-26T12:03:53.518Z,91.40
2019-05-26T12:06:25.831Z,91.40
2019-05-26T12:08:58.222Z,91.00
2019-05-26T12:11:30.391Z,91.00
2019-05-26T12:14:02.636Z,91.20
2019-05-26T12:16:34.799Z,90.80
2019-05-26T12:19:06.847Z,90.90
2019-05-26T12:21:38.739Z,90.50
2019-05-26T12:24:10.640Z,91.70
2019-05-26T12:26:42.481Z,90.80
2019-05-26T12:29:14.739Z,90.90
2019-05-26T12:34:19.426Z,90.10
2019-05-26T12:36:52.175Z,89.50
2019-05-26T12:39:24.621Z,89.60
2019-05-26T12:41:56.791Z,89.30
2019-05-26T12:44:29.023Z,88.10
2019-05-26T12:47:01.192Z,87.90
2019-05-26T12:49:33.244Z,87.90
2019-05-26T12:52:05.883Z,88.40
2019-05-26T12:54:37.737Z,88.40
2019-05-26T12:57:09.700Z,88.50
2019-05-26T12:59:41.878Z,88.80
2019-05-26T13:02:13.728Z,88.30
2019-05-26T13:04:45.704Z,87.70
2019-05-26T13:07:18.357Z,88.30
2019-05-26T13:09:50.836Z,87.90
2019-05-26T13:12:22.807Z,88.00
2019-05-26T13:15:05.448Z,87.90
2019-05-26T13:17:29.091Z,86.70
2019-05-26T13:20:01.114Z,85.50
2019-05-26T13:22:33.043Z,84.00
2019-05-26T13:25:05.720Z,85.10
2019-05-26T13:27:37.956Z,85.00
2019-05-26T13:30:11.351Z,85.70
2019-05-26T13:32:43.469Z,85.90
2019-05-26T13:35:16.384Z,85.40
2019-05-26T13:37:48.655Z,85.60
2019-05-26T13:40:21.200Z,85.80
2019-05-26T13:42:53.720Z,86.60
2019-05-26T13:45:25.859Z,87.20
2019-05-26T13:47:58.120Z,86.70
2019-05-26T13:50:30.227Z,87.20
2019-05-26T13:53:02.060Z,87.20
2019-05-26T13:55:34.163Z,87.00
2019-05-26T13:58:06.302Z,86.60
2019-05-26T14:00:38.147Z,86.80
2019-05-26T14:03:10.315Z,86.40
2019-05-26T14:05:43.303Z,86.80
2019-05-26T14:08:15.421Z,86.00
2019-05-26T14:10:47.420Z,85.10
2019-05-26T14:13:19.250Z,85.00
2019-05-26T14:15:53.857Z,84.90
2019-05-26T14:18:27.662Z,84.40
2019-05-26T14:20:59.871Z,83.60
2019-05-26T14:23:32.394Z,83.30
2019-05-26T14:26:04.621Z,83.50
2019-05-26T14:28:37.105Z,83.50
2019-05-26T14:31:09.586Z,83.50
2019-05-26T14:33:41.839Z,83.50
2019-05-26T14:36:13.953Z,83.90
2019-05-26T14:38:45.678Z,84.00
2019-05-26T14:41:18.208Z,83.90
2019-05-26T14:43:50.715Z,83.80
2019-05-26T14:46:23.164Z,83.80
2019-05-26T14:48:55.443Z,84.30
2019-05-26T14:51:27.958Z,84.80
2019-05-26T14:53:59.898Z,85.40
2019-05-26T14:56:31.879Z,86.00
2019-05-26T14:59:03.935Z,86.40
2019-05-26T15:01:36.482Z,86.90
2019-05-26T15:04:08.627Z,87.40
2019-05-26T15:06:40.888Z,88.30
2019-05-26T15:09:24.867Z,89.00
2019-05-26T15:11:47.574Z,89.30
2019-05-26T15:14:20.015Z,89.60
2019-05-26T15:16:52.289Z,89.40
2019-05-26T15:19:24.350Z,89.60
2019-05-26T15:21:56.603Z,89.50
2019-05-26T15:24:29.147Z,90.00
2019-05-26T15:27:01.003Z,90.40
2019-05-26T15:29:32.861Z,90.40
2019-05-26T15:32:05.089Z,90.30
2019-05-26T15:34:37.608Z,90.50
2019-05-26T15:37:10.085Z,90.80
2019-05-26T15:39:42.611Z,90.30
2019-05-26T15:42:15.302Z,90.60
2019-05-26T15:44:47.261Z,90.70
2019-05-26T15:47:19.206Z,90.60
2019-05-26T15:52:23.634Z,90.20
2019-05-26T15:54:55.928Z,90.50
2019-05-26T15:57:28.180Z,90.60
2019-05-26T16:00:00.151Z,91.00
2019-05-26T16:02:32.281Z,91.00
2019-05-26T16:05:04.759Z,91.10
2019-05-26T16:07:37.208Z,91.40
2019-05-26T16:10:09.943Z,91.50
2019-05-26T16:12:41.805Z,91.60
2019-05-26T16:15:14.236Z,91.40
2019-05-26T16:17:46.185Z,91.50
2019-05-26T16:20:18.602Z,91.70
2019-05-26T16:22:50.929Z,91.60
2019-05-26T16:25:22.843Z,91.70
2019-05-26T16:27:56.105Z,91.60
2019-05-26T16:30:28.711Z,91.60
2019-05-26T16:33:01.158Z,91.10
2019-05-26T16:35:33.084Z,91.00
2019-05-26T16:38:05.672Z,91.20
2019-05-26T16:40:38.253Z,91.20
2019-05-26T16:43:10.814Z,90.80
2019-05-26T16:45:55.764Z,90.90
2019-05-26T16:48:19.974Z,91.10
2019-05-26T16:50:52.452Z,91.10
2019-05-26T16:53:28.214Z,91.00
2019-05-26T16:56:01.091Z,91.20
2019-05-26T16:58:32.915Z,91.20
2019-05-26T17:01:05.290Z,91.20
2019-05-26T17:03:37.564Z,91.20
2019-05-26T17:06:09.831Z,91.10
2019-05-26T17:08:42.012Z,91.20
2019-05-26T17:11:13.851Z,91.30
2019-05-26T17:13:45.980Z,91.40
2019-05-26T17:16:18.243Z,91.30
2019-05-26T17:18:50.471Z,91.60
2019-05-26T17:21:22.404Z,91.60
2019-05-26T17:23:54.714Z,91.80
2019-05-26T17:26:28.317Z,91.80
2019-05-26T17:29:00.521Z,91.80
2019-05-26T17:31:32.947Z,91.90
2019-05-26T17:34:05.260Z,92.00
2019-05-26T17:36:37.515Z,92.10
2019-05-26T17:39:09.477Z,92.20
2019-05-26T17:41:41.424Z,92.30
2019-05-26T17:44:13.727Z,92.40
2019-05-26T17:46:45.657Z,92.50
2019-05-26T17:49:17.516Z,92.60
2019-05-26T17:51:49.703Z,92.60
2019-05-26T17:54:21.634Z,92.70
2019-05-26T17:56:53.624Z,92.80
2019-05-26T17:59:25.744Z,92.90
2019-05-26T18:01:57.962Z,93.00
2019-05-26T18:04:30.678Z,93.00
2019-05-26T18:07:02.972Z,93.10
2019-05-26T18:09:43.549Z,93.20
2019-05-26T18:12:09.247Z,93.20
2019-05-26T18:14:42.010Z,93.30
2019-05-26T18:17:14.166Z,93.40
2019-05-26T18:19:46.043Z,93.50
2019-05-26T18:22:18.464Z,93.60
2019-05-26T18:24:56.558Z,93.60
2019-05-26T18:27:24.889Z,93.70
2019-05-26T18:29:57.370Z,93.60
2019-05-26T18:32:29.622Z,93.50
2019-05-26T18:35:01.485Z,93.60
2019-05-26T18:37:33.329Z,93.80
2019-05-26T18:40:05.817Z,93.60
2019-05-26T18:42:38.036Z,93.70
2019-05-26T18:45:11.415Z,94.00
2019-05-26T18:47:43.634Z,93.60
2019-05-26T18:50:15.915Z,93.70
2019-05-26T18:52:47.780Z,93.90
2019-05-26T18:55:19.709Z,93.90
2019-05-26T18:57:51.805Z,94.00
2019-05-26T19:00:30.345Z,94.00
2019-05-26T19:02:57.824Z,94.10
2019-05-26T19:05:35.857Z,94.20
2019-05-26T19:15:43.111Z,96.90
2019-05-26T19:18:20.034Z,94.90
2019-05-26T19:20:49.031Z,95.10
2019-05-26T19:23:21.349Z,95.40
2019-05-26T19:25:53.210Z,95.60
2019-05-26T19:28:25.930Z,95.70
2019-05-26T19:30:57.993Z,95.90
2019-05-26T19:33:30.059Z,96.40
2019-05-26T19:36:02.233Z,96.80
2019-05-26T19:38:35.029Z,96.40
2019-05-26T19:41:06.953Z,99.90
2019-05-26T19:43:39.161Z,99.90
2019-05-26T19:48:43.741Z,97.10
2019-05-26T19:51:15.661Z,96.90
2019-05-26T19:53:47.543Z,96.70
2019-05-26T19:56:20.109Z,96.80
2019-05-26T19:58:52.434Z,96.80
2019-05-26T20:01:24.876Z,96.70
2019-05-26T20:03:56.808Z,96.90
2019-05-26T20:06:28.731Z,97.00
2019-05-26T20:09:00.851Z,96.90
2019-05-26T20:11:33.010Z,97.00
2019-05-26T20:14:05.197Z,96.80
2019-05-26T20:16:37.040Z,96.90
2019-05-26T20:19:09.419Z,97.10
2019-05-26T20:21:42.096Z,96.80
2019-05-26T20:24:14.009Z,97.20
2019-05-26T20:26:45.986Z,97.60
2019-05-26T20:29:18.100Z,97.00
2019-05-26T20:31:50.983Z,96.90
2019-05-26T20:34:23.171Z,97.90
2019-05-26T20:36:55.644Z,97.80
2019-05-26T20:39:27.785Z,97.50
2019-05-26T20:42:00.376Z,97.50
2019-05-26T20:44:32.887Z,97.50
2019-05-26T20:47:05.147Z,97.40
2019-05-26T20:49:45.253Z,97.50
2019-05-26T20:52:11.395Z,97.50
2019-05-26T20:54:44.094Z,97.50
2019-05-26T20:57:16.431Z,97.60
2019-05-26T20:59:48.327Z,97.80
2019-05-26T21:02:20.622Z,98.00
2019-05-26T21:04:53.915Z,98.30
2019-05-26T21:07:27.035Z,99.90
2019-05-26T21:09:59.331Z,99.90
2019-05-26T21:12:31.375Z,99.90
2019-05-26T21:15:05.477Z,99.90
2019-05-26T21:17:38.072Z,99.90
2019-05-26T21:20:10.308Z,99.90
2019-05-26T21:22:42.429Z,99.90
2019-05-26T21:25:15.590Z,99.90
2019-05-26T21:27:47.716Z,99.90
2019-05-26T21:30:20.055Z,99.90
2019-05-26T21:32:52.531Z,99.90
2019-05-26T21:35:25.382Z,99.90
2019-05-26T21:37:57.574Z,99.90
2019-05-26T21:40:29.515Z,99.90
2019-05-26T21:43:01.476Z,99.90
2019-05-26T21:45:41.086Z,99.90
2019-05-26T21:48:12.912Z,99.90
2019-05-26T21:50:45.788Z,99.80
2019-05-26T21:53:18.137Z,99.90
2019-05-26T21:55:50.298Z,99.80
2019-05-26T21:58:22.958Z,99.80
2019-05-26T22:00:54.993Z,99.80
2019-05-26T22:03:27.007Z,99.90
2019-05-26T22:05:59.258Z,99.90
2019-05-26T22:08:31.447Z,99.90
2019-05-26T22:11:03.541Z,99.90
2019-05-26T22:13:35.572Z,99.90
2019-05-26T22:16:07.796Z,99.90
2019-05-26T22:18:40.094Z,99.90
2019-05-26T22:21:12.240Z,99.90
2019-05-26T22:23:44.056Z,99.90
2019-05-26T22:26:15.923Z,99.90
2019-05-26T22:28:47.914Z,99.90
2019-05-26T22:31:20.104Z,99.90
2019-05-26T22:33:53.291Z,99.90
2019-05-26T22:36:25.544Z,99.90
2019-05-26T22:38:58.117Z,99.90
2019-05-26T22:41:30.631Z,99.90
2019-05-26T22:44:02.824Z,99.90
2019-05-26T22:46:35.030Z,99.90
2019-05-26T22:49:06.960Z,99.90
2019-05-26T22:51:39.210Z,99.90
2019-05-26T22:54:11.127Z,99.90
2019-05-26T22:56:43.191Z,99.90
2019-05-26T22:59:15.091Z,99.90
2019-05-26T23:01:47.479Z,99.90
2019-05-26T23:04:19.597Z,99.90
2019-05-26T23:06:51.703Z,99.90
2019-05-26T23:09:24.477Z,98.10
2019-05-26T23:11:56.751Z,98.80
2019-05-26T23:14:30.519Z,98.10
2019-05-26T23:17:03.791Z,98.10
2019-05-26T23:19:36.082Z,98.30
2019-05-26T23:22:08.349Z,98.10
2019-05-26T23:24:40.544Z,98.10
2019-05-26T23:27:12.414Z,98.10
2019-05-26T23:29:44.566Z,98.10
2019-05-26T23:32:16.690Z,98.10
2019-05-26T23:34:49.114Z,98.20
2019-05-26T23:37:21.306Z,98.10
2019-05-26T23:39:53.930Z,98.10
2019-05-26T23:42:26.628Z,98.10
2019-05-26T23:44:58.890Z,98.10
2019-05-26T23:47:30.844Z,98.20
2019-05-26T23:50:03.215Z,98.10
2019-05-26T23:52:35.680Z,98.10
2019-05-26T23:55:08.039Z,98.10
2019-05-26T23:57:39.854Z,98.10
